Skip Navigation Links Skip Navigation Links

Current Weather

Brookhaven, Shirley, N.Y.

For information only: do not use for flight planning or navigation.
Latest weather
Observation time Saturday, June 6, 2020 7:56 PM EDT
Local time Saturday, June 6, 2020 8:31 PM EDT
Flight conditions Visual Meteorological Conditions
Winds
Wind direction West (270°)
Wind speed 7 mph
Visibility 10 mi.
Sky condition
Ceiling unlimited
Sky clear
Temperature 78°F
Dewpoint 64°F
Altimeter 29.70 in.Hg
Pressure change last 3 hours-0.04 in.Hg
Pressure rising more slowly
Precipitation
Precipitation last 3 hours trace
Derived measurements
Relative humidity 62%
Heat index 78°F
Density altitude 1839 ft.
Sea-level pressure 29.70 in.Hg
Climate data
Temperature minimum, last 6 hours 76°F
Temperature maximum, last 6 hours 82°F
Remarks
Fully automated report.
Automated weather observing station with precipitation discriminator.
METAR KHWV 062356Z AUTO 27006KT 10SM CLR 26/18 A2970 RMK AO2 SLP057 60000 T02560178 10278 20244 51013

Settings

Location code

InnerDrive.Weather 4.0.6770.0 Release CLR 4.0.30319.42000
Copyright ©2018 Inner Drive Technology. All rights reserved. Portions Copyright ©1986-2018 David Braverman.

Find weather

Site navigation


Skip Navigation Links

Place info

Page info

PayPal - The safer, easier way to pay online!

Return home.

Copyright ©2020 Inner Drive Technology. Purveyors of fine, hand-crafted computer software. Page printed 2020-06-07T00:31:12 UTC.